Terminal Aerodrome Forecast
Issued by NWS Wilmington, NC

Home | Current Version | Previous Version | Text Only | Print | Product List | Glossary On
Versions: 1 2 3 4 5 6 7 8 9 10 11 12 13 14 15
451
FTUS42 KILM 232126 AAA
TAFFLO
TAF AMD
KFLO 232126Z 2321/2418 07011KT P6SM VCSH BKN006 OVC015
      TEMPO 2400/2403 2SM SHRA OVC008
     FM240300 09011KT 3SM SHRA OVC007
      TEMPO 2405/2409 2SM SHRA OVC004
     FM241100 10008KT 3SM SHRA OVC008
     FM241500 11010G18KT 2SM SHRA OVC006=

USA.gov is the U.S. government's official web portal to all federal, state and local government web resources and services.